Time;durP1;ratioP1;P1;durP2;ratioP2;P2;SDS_P1;SDS_P2;PMS_P1;PMS_P2;Temp;Humidity;BMP_temperature;BMP_pressure;BME280_temperature;BME280_humidity;BME280_pressure;Samples;Min_cycle;Max_cycle;Signal;HPM_P1;HPM_P2
2024/01/23 00:00:39;;;;;;;16.77;2.63;;;8.20;1.00;;;;;;20669088;28;20456;-39
2024/01/23 00:10:40;;;;;;;20.30;2.80;;;8.20;1.00;;;;;;20665573;28;20033;-39
2024/01/23 00:20:41;;;;;;;19.98;3.20;;;8.20;1.00;;;;;;20666766;28;20042;-40
2024/01/23 00:30:41;;;;;;;18.08;2.45;;;8.10;1.00;;;;;;20661512;28;20041;-39
2024/01/23 00:40:42;;;;;;;15.60;2.50;;;8.10;1.00;;;;;;20665944;28;20046;-39
2024/01/23 00:50:42;;;;;;;12.73;2.40;;;8.00;1.00;;;;;;20663962;28;20546;-39
2024/01/23 01:00:44;;;;;;;16.92;3.17;;;8.00;1.00;;;;;;20666095;28;20643;-39
2024/01/23 01:10:47;;;;;;;18.25;2.33;;;7.90;1.00;;;;;;20663110;28;20425;-39
2024/01/23 01:20:48;;;;;;;14.85;2.30;;;7.90;1.00;;;;;;20672822;28;20033;-39
2024/01/23 01:30:49;;;;;;;13.73;2.10;;;7.70;1.00;;;;;;20658727;28;20502;-39
2024/01/23 01:40:49;;;;;;;20.52;2.75;;;7.70;1.00;;;;;;20659647;28;20060;-39
2024/01/23 01:50:50;;;;;;;14.30;2.60;;;7.60;1.00;;;;;;20652294;28;20119;-39
2024/01/23 02:00:53;;;;;;;18.97;2.73;;;7.40;1.00;;;;;;20656584;28;20132;-39
2024/01/23 02:10:54;;;;;;;19.23;3.00;;;7.50;1.00;;;;;;20673411;28;20457;-39
2024/01/23 02:20:55;;;;;;;20.70;3.10;;;7.60;1.00;;;;;;20668043;28;20026;-39
2024/01/23 02:30:55;;;;;;;17.47;2.20;;;7.50;1.00;;;;;;20662650;28;20058;-39
2024/01/23 02:40:56;;;;;;;16.88;2.60;;;7.50;1.00;;;;;;20660112;28;20472;-39
2024/01/23 02:50:56;;;;;;;25.10;2.77;;;7.60;1.00;;;;;;20678288;28;20037;-39
2024/01/23 03:00:57;;;;;;;22.83;3.85;;;7.60;1.00;;;;;;20676898;28;20456;-39
2024/01/23 03:10:58;;;;;;;16.90;2.30;;;7.50;1.00;;;;;;20675675;28;20540;-39
2024/01/23 03:20:58;;;;;;;17.02;2.67;;;7.40;1.00;;;;;;20667819;28;20052;-39
2024/01/23 03:30:59;;;;;;;18.35;2.50;;;7.30;1.00;;;;;;20666534;28;20042;-39
2024/01/23 03:40:59;;;;;;;14.18;2.55;;;7.20;1.00;;;;;;20666081;28;20042;-39
2024/01/23 03:51:00;;;;;;;15.68;2.78;;;7.20;1.00;;;;;;20669685;28;20048;-39
2024/01/23 04:01:01;;;;;;;18.08;2.47;;;7.20;1.00;;;;;;20673360;28;20589;-39
2024/01/23 04:11:01;;;;;;;13.55;2.40;;;7.20;1.00;;;;;;20665378;28;20080;-39
2024/01/23 04:21:05;;;;;;;23.45;3.00;;;7.00;1.00;;;;;;20673661;28;20486;-39
2024/01/23 04:31:05;;;;;;;14.05;2.53;;;7.20;1.00;;;;;;20671703;28;20048;-39
2024/01/23 04:41:06;;;;;;;13.35;2.15;;;7.20;1.00;;;;;;20699861;28;20054;-40
2024/01/23 04:51:07;;;;;;;17.47;2.40;;;7.40;1.00;;;;;;20663807;28;20104;-39
2024/01/23 05:01:09;;;;;;;23.13;2.70;;;7.40;1.00;;;;;;20657140;28;21007;-39
2024/01/23 05:11:09;;;;;;;17.58;2.60;;;7.30;1.00;;;;;;20660639;28;20062;-39
2024/01/23 05:21:10;;;;;;;19.48;3.15;;;7.30;1.00;;;;;;20671210;28;20502;-39
2024/01/23 05:31:10;;;;;;;18.70;2.50;;;7.20;1.00;;;;;;20660001;28;20046;-39
2024/01/23 05:41:12;;;;;;;19.80;2.53;;;7.00;1.00;;;;;;20660476;28;20038;-39
2024/01/23 05:51:12;;;;;;;22.70;3.38;;;7.00;1.00;;;;;;20656551;28;20068;-39
2024/01/23 06:01:13;;;;;;;17.77;3.03;;;6.90;1.00;;;;;;20651783;28;20065;-39
2024/01/23 06:11:13;;;;;;;15.88;2.83;;;6.80;1.00;;;;;;20660600;28;20111;-39
2024/01/23 06:21:14;;;;;;;19.88;2.88;;;6.90;1.00;;;;;;20680848;28;20046;-39
2024/01/23 06:31:15;;;;;;;16.40;2.73;;;6.90;1.00;;;;;;20679366;28;20069;-39
2024/01/23 06:41:15;;;;;;;21.48;2.85;;;6.70;1.00;;;;;;20684096;28;20806;-40
2024/01/23 06:51:18;;;;;;;17.48;3.63;;;6.70;1.00;;;;;;20676567;28;20780;-39
2024/01/23 07:01:18;;;;;;;15.98;3.20;;;6.60;1.00;;;;;;20666682;28;20410;-40
2024/01/23 07:11:20;;;;;;;22.42;3.03;;;6.50;1.00;;;;;;20673386;28;20555;-40
2024/01/23 07:21:20;;;;;;;28.25;8.68;;;6.50;1.00;;;;;;20662039;28;20561;-40
2024/01/23 07:31:21;;;;;;;38.47;11.03;;;6.30;1.00;;;;;;20637954;28;20438;-40
2024/01/23 07:41:21;;;;;;;21.88;4.53;;;6.30;1.00;;;;;;20653997;28;20054;-40
2024/01/23 07:51:22;;;;;;;20.60;4.15;;;6.20;1.00;;;;;;20670698;28;20484;-39
2024/01/23 08:01:23;;;;;;;13.98;2.78;;;6.00;1.00;;;;;;20661132;28;20037;-40
2024/01/23 08:11:23;;;;;;;21.73;2.70;;;5.90;1.00;;;;;;20663291;28;20119;-39
2024/01/23 08:21:24;;;;;;;17.60;3.33;;;6.10;1.00;;;;;;20654253;28;20047;-40
2024/01/23 08:31:24;;;;;;;32.70;3.45;;;6.10;4.00;;;;;;20649398;28;20490;-39
2024/01/23 08:41:25;;;;;;;22.80;3.70;;;6.30;2.10;;;;;;20656561;28;20042;-39
2024/01/23 08:51:28;;;;;;;16.58;2.60;;;6.60;1.00;;;;;;20662174;28;20074;-40
2024/01/23 09:01:28;;;;;;;24.52;2.88;;;6.70;1.00;;;;;;20664252;28;20085;-39
2024/01/23 09:11:29;;;;;;;18.93;3.27;;;6.60;1.00;;;;;;20662319;28;20292;-40
2024/01/23 09:21:30;;;;;;;34.20;7.53;;;6.80;1.00;;;;;;20663466;28;20899;-40
2024/01/23 09:31:30;;;;;;;25.87;5.87;;;7.20;1.00;;;;;;20648809;28;20072;-40
2024/01/23 09:41:34;;;;;;;14.77;3.20;;;7.30;1.00;;;;;;20677296;28;20472;-40
2024/01/23 09:51:37;;;;;;;24.25;4.35;;;7.60;1.00;;;;;;20647580;28;20527;-40
2024/01/23 10:01:39;;;;;;;22.65;4.38;;;7.70;1.00;;;;;;20662691;28;20038;-39
2024/01/23 10:11:40;;;;;;;22.80;3.42;;;7.80;1.00;;;;;;20658350;28;20054;-39
2024/01/23 10:21:41;;;;;;;18.48;3.20;;;7.90;1.00;;;;;;20654370;28;20034;-39
2024/01/23 10:31:42;;;;;;;26.37;4.87;;;8.10;1.00;;;;;;20645779;28;20077;-41
2024/01/23 10:41:44;;;;;;;17.85;3.28;;;8.40;1.00;;;;;;20647015;28;21065;-39
2024/01/23 10:51:48;;;;;;;22.05;3.30;;;8.50;1.00;;;;;;20632367;28;20069;-40
2024/01/23 11:01:51;;;;;;;19.98;3.67;;;8.80;1.00;;;;;;20655599;28;20066;-41
2024/01/23 11:12:12;;;;;;;21.77;3.50;;;8.70;1.00;;;;;;20664716;28;20121;-40
2024/01/23 11:22:12;;;;;;;20.90;3.22;;;8.80;1.00;;;;;;20668794;28;20056;-40
2024/01/23 11:32:24;;;;;;;16.48;3.08;;;8.70;1.00;;;;;;20659719;28;20037;-41
2024/01/23 11:42:35;;;;;;;26.80;3.30;;;8.70;1.00;;;;;;20648635;28;20046;-41
2024/01/23 11:52:37;;;;;;;25.58;3.70;;;8.90;1.00;;;;;;20626960;28;20034;-41
2024/01/23 12:02:39;;;;;;;19.10;2.97;;;9.10;1.00;;;;;;20658065;28;20378;-40
2024/01/23 12:12:40;;;;;;;20.67;3.10;;;9.30;1.00;;;;;;20650788;28;20446;-41
2024/01/23 12:22:41;;;;;;;25.30;3.72;;;9.70;1.00;;;;;;20636471;28;20271;-40
2024/01/23 12:32:49;;;;;;;20.60;4.15;;;10.20;1.00;;;;;;20642705;28;20141;-41
2024/01/23 12:42:50;;;;;;;20.63;4.13;;;9.90;1.00;;;;;;20637121;28;20038;-40
2024/01/23 12:52:55;;;;;;;21.10;3.55;;;9.60;1.00;;;;;;20642652;28;20042;-40
2024/01/23 13:02:57;;;;;;;22.00;3.53;;;9.40;1.00;;;;;;20664216;28;20081;-40
2024/01/23 13:12:57;;;;;;;22.27;3.40;;;9.30;1.00;;;;;;20664929;28;20128;-40
2024/01/23 13:22:58;;;;;;;25.08;4.32;;;9.20;1.00;;;;;;20656202;28;20038;-40
2024/01/23 13:32:59;;;;;;;26.25;4.32;;;9.20;1.00;;;;;;20643944;28;20475;-40
2024/01/23 13:43:00;;;;;;;24.65;4.00;;;9.20;1.00;;;;;;20648110;28;20046;-40
2024/01/23 13:53:00;;;;;;;19.63;3.47;;;9.20;1.00;;;;;;20627488;28;20125;-40
2024/01/23 14:03:01;;;;;;;34.50;5.60;;;9.10;1.00;;;;;;20633112;28;20088;-40
2024/01/23 14:13:02;;;;;;;25.05;4.97;;;9.10;1.00;;;;;;20637603;28;20214;-40
2024/01/23 14:23:03;;;;;;;26.58;5.78;;;9.00;1.00;;;;;;20645923;28;20046;-40
2024/01/23 14:33:04;;;;;;;33.58;5.57;;;9.00;6.30;;;;;;20640445;28;20505;-40
2024/01/23 14:43:05;;;;;;;22.30;5.65;;;8.90;17.10;;;;;;20649638;28;20038;-40
2024/01/23 14:53:06;;;;;;;33.03;6.68;;;8.80;28.50;;;;;;20650061;28;20037;-40
2024/01/23 15:03:07;;;;;;;26.80;4.88;;;8.90;44.10;;;;;;20662043;28;20045;-39
2024/01/23 15:13:07;;;;;;;30.95;5.70;;;8.80;53.60;;;;;;20664121;28;20042;-40
2024/01/23 15:23:11;;;;;;;33.47;5.43;;;8.80;68.80;;;;;;20674728;28;20034;-39
2024/01/23 15:33:13;;;;;;;24.48;5.35;;;8.70;90.00;;;;;;20654861;28;20048;-39
2024/01/23 15:43:14;;;;;;;28.98;5.20;;;8.60;99.90;;;;;;20656092;28;20027;-39
2024/01/23 15:53:15;;;;;;;21.48;5.40;;;8.60;99.90;;;;;;20658624;28;20427;-39
2024/01/23 16:03:16;;;;;;;19.20;4.78;;;8.50;99.90;;;;;;20663762;28;20073;-39
2024/01/23 16:13:19;;;;;;;20.33;5.27;;;8.40;99.90;;;;;;20655303;28;20521;-39
2024/01/23 16:23:21;;;;;;;21.13;4.53;;;8.30;99.90;;;;;;20653543;28;20056;-39
2024/01/23 16:33:21;;;;;;;21.35;4.63;;;8.30;99.90;;;;;;20643269;28;20463;-39
2024/01/23 16:43:22;;;;;;;17.10;3.63;;;8.30;99.90;;;;;;20648930;28;20038;-39
2024/01/23 16:53:23;;;;;;;21.88;3.50;;;8.40;99.90;;;;;;20653255;28;20494;-39
2024/01/23 17:03:24;;;;;;;13.73;3.67;;;8.40;99.90;;;;;;20662763;28;20037;-39
2024/01/23 17:13:25;;;;;;;17.73;5.28;;;8.40;99.90;;;;;;20665903;28;20037;-39
2024/01/23 17:23:26;;;;;;;22.08;5.55;;;8.40;99.90;;;;;;20677884;28;20450;-39
2024/01/23 17:33:29;;;;;;;19.33;7.10;;;8.40;99.90;;;;;;20673198;28;20488;-40
2024/01/23 17:43:29;;;;;;;20.90;8.95;;;8.40;99.90;;;;;;20650854;28;20093;-39
2024/01/23 17:53:30;;;;;;;12.30;6.33;;;8.50;99.90;;;;;;20644782;28;20763;-39
2024/01/23 18:03:31;;;;;;;12.77;6.90;;;8.60;99.90;;;;;;20632007;28;20809;-39
2024/01/23 18:13:32;;;;;;;19.42;9.35;;;8.70;99.90;;;;;;20657614;28;20050;-40
2024/01/23 18:23:33;;;;;;;18.17;9.15;;;8.80;99.90;;;;;;20659670;28;20049;-40
2024/01/23 18:33:34;;;;;;;24.00;10.57;;;9.00;99.90;;;;;;20647874;28;20611;-38
2024/01/23 18:43:35;;;;;;;20.15;11.10;;;9.10;99.90;;;;;;20649459;28;20049;-41
2024/01/23 18:53:35;;;;;;;18.45;10.25;;;9.30;99.90;;;;;;20658909;28;20045;-41
2024/01/23 19:03:36;;;;;;;26.48;10.55;;;9.50;99.90;;;;;;20668767;28;20123;-39
2024/01/23 19:13:37;;;;;;;21.90;11.57;;;9.60;99.90;;;;;;20672856;28;20041;-41
2024/01/23 19:23:38;;;;;;;21.65;11.35;;;9.60;99.90;;;;;;20657678;28;20073;-40
2024/01/23 19:33:40;;;;;;;17.27;10.50;;;9.80;99.90;;;;;;20652336;28;20046;-40
2024/01/23 19:43:44;;;;;;;18.77;10.10;;;9.90;99.90;;;;;;20643395;28;20319;-40
2024/01/23 19:53:44;;;;;;;17.05;9.02;;;10.10;99.90;;;;;;20661957;28;20521;-41
2024/01/23 20:03:45;;;;;;;14.70;8.30;;;10.20;99.90;;;;;;20644040;28;20384;-40
2024/01/23 20:13:47;;;;;;;14.50;8.33;;;10.30;99.90;;;;;;20636120;28;20591;-41
2024/01/23 20:23:47;;;;;;;14.43;7.85;;;10.40;99.90;;;;;;20644159;28;20833;-41
2024/01/23 20:33:48;;;;;;;14.40;9.02;;;10.50;99.90;;;;;;20655025;28;20445;-39
2024/01/23 20:43:49;;;;;;;17.27;9.25;;;10.60;99.90;;;;;;20663599;28;20062;-40
2024/01/23 20:53:49;;;;;;;15.87;9.67;;;10.70;99.90;;;;;;20671352;28;20729;-39
2024/01/23 21:03:50;;;;;;;17.25;9.48;;;10.80;99.90;;;;;;20659072;28;20038;-40
2024/01/23 21:13:52;;;;;;;20.10;9.93;;;10.90;99.90;;;;;;20646329;28;20030;-40
2024/01/23 21:23:53;;;;;;;14.82;8.32;;;11.00;99.90;;;;;;20650713;28;20038;-40
2024/01/23 21:33:53;;;;;;;9.27;6.85;;;11.20;99.90;;;;;;20647586;28;20103;-40
2024/01/23 21:43:54;;;;;;;13.20;5.40;;;11.40;99.90;;;;;;20666636;28;20072;-40
2024/01/23 21:53:54;;;;;;;6.55;3.72;;;11.70;99.90;;;;;;20668846;28;20449;-40
2024/01/23 22:03:55;;;;;;;5.18;2.50;;;11.90;99.90;;;;;;20671064;28;20026;-39
2024/01/23 22:13:56;;;;;;;3.90;1.50;;;12.10;99.90;;;;;;20669232;28;20037;-40
2024/01/23 22:23:57;;;;;;;2.67;1.20;;;12.30;99.90;;;;;;20668092;28;20394;-40
2024/01/23 22:33:57;;;;;;;2.53;1.20;;;12.50;99.90;;;;;;20662608;28;20050;-40
2024/01/23 22:43:58;;;;;;;2.53;1.10;;;12.70;99.90;;;;;;20665210;28;20332;-41
2024/01/23 22:53:59;;;;;;;3.95;1.00;;;12.80;99.90;;;;;;20656784;28;20523;-40
2024/01/23 23:03:59;;;;;;;2.95;0.80;;;13.00;99.90;;;;;;20664676;28;20034;-40
2024/01/23 23:14:00;;;;;;;2.20;0.70;;;13.10;94.00;;;;;;20662874;28;20138;-40
2024/01/23 23:24:00;;;;;;;3.15;0.60;;;13.10;90.10;;;;;;20657372;28;20042;-40
2024/01/23 23:34:01;;;;;;;4.65;0.50;;;13.20;81.10;;;;;;20657944;28;20046;-41
2024/01/23 23:44:01;;;;;;;3.30;0.60;;;13.20;73.60;;;;;;20654611;28;20037;-40
2024/01/23 23:54:02;;;;;;;3.67;0.35;;;13.30;66.30;;;;;;20661802;28;20569;-40
